Aviation Digital Data Service (ADDS)

Output produced by METARs form (1525 UTC 07 July 2015)
found at http://aviationweather.gov/adds/metars/
 
KLBE 071131Z 0712/0812 VRB03KT P6SM SCT080 
     FM071500 22012KT P6SM BKN050 
     FM080300 23008KT 4SM TSRA OVC035CB